Time;durP1;ratioP1;P1;durP2;ratioP2;P2;SDS_P1;SDS_P2;PMS_P1;PMS_P2;Temp;Humidity;BMP_temperature;BMP_pressure;BME280_temperature;BME280_humidity;BME280_pressure;Samples;Min_cycle;Max_cycle;Signal;HPM_P1;HPM_P2
2023/04/27 00:02:19;;;;;;;5.00;3.90;;;17.40;46.10;;;;;;4943246;29;20536;-77
2023/04/27 00:04:48;;;;;;;7.63;4.10;;;17.40;46.10;;;;;;4935548;29;20945;-77
2023/04/27 00:07:16;;;;;;;6.10;4.50;;;17.40;46.10;;;;;;4936027;29;20499;-79
2023/04/27 00:09:44;;;;;;;4.37;3.93;;;17.40;46.20;;;;;;4935327;29;20445;-77
2023/04/27 00:12:12;;;;;;;5.70;4.40;;;17.30;46.10;;;;;;4947506;29;20482;-77
2023/04/27 00:14:40;;;;;;;7.83;4.60;;;17.30;46.10;;;;;;4946336;29;20452;-77
2023/04/27 00:17:10;;;;;;;6.10;4.13;;;17.30;46.10;;;;;;4946691;29;20443;-76
2023/04/27 00:19:40;;;;;;;32.20;18.00;;;17.30;46.10;;;;;;4953167;29;20484;-77
2023/04/27 00:22:08;;;;;;;26.07;16.90;;;17.30;46.20;;;;;;4953445;29;20474;-77
2023/04/27 00:24:36;;;;;;;27.13;18.00;;;17.20;46.10;;;;;;4952949;29;20447;-76
2023/04/27 00:27:04;;;;;;;34.20;21.80;;;17.20;46.20;;;;;;4949622;29;20447;-76
2023/04/27 00:29:32;;;;;;;34.73;21.73;;;17.20;46.20;;;;;;4934862;29;20448;-77
2023/04/27 00:32:00;;;;;;;36.13;22.77;;;17.20;46.00;;;;;;4953083;29;20467;-76
2023/04/27 00:34:30;;;;;;;36.20;22.77;;;17.10;46.30;;;;;;4946642;29;20462;-76
2023/04/27 00:36:58;;;;;;;36.63;23.97;;;17.20;46.30;;;;;;4935136;29;20458;-76
2023/04/27 00:39:26;;;;;;;35.00;22.97;;;17.10;46.20;;;;;;4941349;29;20475;-76
2023/04/27 00:41:54;;;;;;;42.27;25.10;;;17.10;46.20;;;;;;4942386;29;20479;-76
2023/04/27 00:44:23;;;;;;;39.50;25.03;;;17.10;46.20;;;;;;4940673;29;20443;-76
2023/04/27 00:46:51;;;;;;;41.20;26.37;;;17.00;46.30;;;;;;4936089;29;20448;-76
2023/04/27 00:49:20;;;;;;;41.40;24.60;;;17.00;46.40;;;;;;4934789;29;20456;-76
2023/04/27 00:51:49;;;;;;;41.70;25.97;;;17.00;46.30;;;;;;4950144;29;20478;-77
2023/04/27 00:54:19;;;;;;;40.87;24.80;;;17.00;46.30;;;;;;4934754;29;20456;-76
2023/04/27 00:56:48;;;;;;;39.10;24.37;;;17.00;46.30;;;;;;4938151;29;20437;-76
2023/04/27 00:59:17;;;;;;;42.83;25.63;;;17.00;46.40;;;;;;4934306;29;20452;-77
2023/04/27 01:01:45;;;;;;;41.07;25.60;;;17.00;46.20;;;;;;4934350;29;20471;-76
2023/04/27 01:04:13;;;;;;;38.60;24.33;;;16.90;46.30;;;;;;4941896;29;20452;-75
2023/04/27 01:06:42;;;;;;;38.53;23.53;;;16.90;46.30;;;;;;4942048;29;20455;-76
2023/04/27 01:09:12;;;;;;;40.83;25.00;;;16.90;46.20;;;;;;4938368;29;20451;-76
2023/04/27 01:11:40;;;;;;;42.00;23.40;;;16.90;46.30;;;;;;4937014;29;20475;-76
2023/04/27 01:14:08;;;;;;;35.33;22.67;;;16.80;46.30;;;;;;4934248;29;20451;-76
2023/04/27 01:16:37;;;;;;;39.07;24.10;;;16.80;46.40;;;;;;4940636;29;20459;-76
2023/04/27 01:19:06;;;;;;;37.00;22.00;;;16.80;46.40;;;;;;4941869;29;20452;-76
2023/04/27 01:21:34;;;;;;;34.73;22.47;;;16.80;46.40;;;;;;4940389;29;20471;-76
2023/04/27 01:24:04;;;;;;;34.50;21.30;;;16.80;46.40;;;;;;4937891;29;20447;-77
2023/04/27 01:26:32;;;;;;;33.17;21.40;;;16.80;46.50;;;;;;4938631;28;20454;-76
2023/04/27 01:29:00;;;;;;;33.60;20.90;;;16.80;46.50;;;;;;4941791;29;20471;-77
2023/04/27 01:31:29;;;;;;;38.17;22.03;;;16.70;46.30;;;;;;4934188;29;20476;-76
2023/04/27 01:33:57;;;;;;;30.50;20.00;;;16.70;46.50;;;;;;4940694;29;20963;-77
2023/04/27 01:36:26;;;;;;;31.80;20.23;;;16.70;46.50;;;;;;4934117;29;20448;-76
2023/04/27 01:38:54;;;;;;;29.97;18.97;;;16.70;47.20;;;;;;4935103;29;20979;-76
2023/04/27 01:41:24;;;;;;;31.60;19.77;;;16.70;46.40;;;;;;4939119;29;20502;-76
2023/04/27 01:43:52;;;;;;;29.23;19.33;;;16.70;46.50;;;;;;4933884;29;20451;-78
2023/04/27 01:46:19;;;;;;;32.60;18.97;;;16.60;46.50;;;;;;4946301;29;20451;-78
2023/04/27 01:48:47;;;;;;;28.50;18.10;;;16.60;46.50;;;;;;4936490;29;20440;-78
2023/04/27 01:51:15;;;;;;;28.47;17.90;;;16.60;46.40;;;;;;4944401;29;20458;-78
2023/04/27 01:53:43;;;;;;;26.90;17.83;;;16.60;46.30;;;;;;4939882;29;20452;-77
2023/04/27 01:56:11;;;;;;;25.93;16.67;;;16.60;46.40;;;;;;4942890;29;20439;-78
2023/04/27 01:58:40;;;;;;;26.70;17.37;;;16.60;46.50;;;;;;4942767;29;20448;-78
2023/04/27 02:01:08;;;;;;;26.20;15.77;;;16.60;46.40;;;;;;4939871;29;20566;-78
2023/04/27 02:03:36;;;;;;;24.57;15.30;;;16.50;47.00;;;;;;4954136;29;20439;-77
2023/04/27 02:06:04;;;;;;;25.90;15.73;;;16.50;46.60;;;;;;4947218;28;20475;-79
2023/04/27 02:08:32;;;;;;;23.33;15.50;;;16.50;46.60;;;;;;4938697;29;20455;-77
2023/04/27 02:11:00;;;;;;;26.13;14.93;;;16.50;46.50;;;;;;4944902;29;20468;-78
2023/04/27 02:13:29;;;;;;;24.33;15.27;;;16.50;46.50;;;;;;4937540;29;20430;-77
2023/04/27 02:16:00;;;;;;;23.07;14.30;;;16.50;46.40;;;;;;4940264;29;20454;-77
2023/04/27 02:18:29;;;;;;;20.77;13.03;;;16.40;46.50;;;;;;4942889;29;20443;-76
2023/04/27 02:20:57;;;;;;;20.23;13.20;;;16.40;46.50;;;;;;4938038;29;20484;-78
2023/04/27 02:23:25;;;;;;;20.50;12.97;;;16.40;46.50;;;;;;4937063;29;20451;-77
2023/04/27 02:25:53;;;;;;;17.33;11.83;;;16.40;46.60;;;;;;4944503;29;20472;-76
2023/04/27 02:28:21;;;;;;;18.47;12.37;;;16.30;46.50;;;;;;4937082;29;20483;-76
2023/04/27 02:30:49;;;;;;;18.00;11.93;;;16.40;46.50;;;;;;4937777;29;20483;-78
2023/04/27 02:33:18;;;;;;;18.70;12.07;;;16.30;46.50;;;;;;4943389;29;20451;-77
2023/04/27 02:35:46;;;;;;;20.43;11.27;;;16.30;46.60;;;;;;4944474;29;20443;-78
2023/04/27 02:38:14;;;;;;;16.17;11.13;;;16.30;46.60;;;;;;4936899;29;20440;-76
2023/04/27 02:40:42;;;;;;;15.80;10.40;;;16.30;46.60;;;;;;4943791;29;20592;-77
2023/04/27 02:43:10;;;;;;;16.50;11.13;;;16.30;46.50;;;;;;4936974;29;20451;-77
2023/04/27 02:45:38;;;;;;;15.40;11.30;;;16.30;46.60;;;;;;4937009;29;20483;-77
2023/04/27 02:48:06;;;;;;;14.57;10.53;;;16.20;46.60;;;;;;4943838;29;20539;-76
2023/04/27 02:50:40;;;;;;;13.83;9.57;;;16.20;46.60;;;;;;4936227;29;20459;-76
2023/04/27 02:53:08;;;;;;;16.00;9.90;;;16.20;46.60;;;;;;4944751;29;20450;-78
2023/04/27 02:55:36;;;;;;;15.23;10.23;;;16.20;46.70;;;;;;4936402;29;20451;-77
2023/04/27 02:58:04;;;;;;;13.10;9.43;;;16.20;46.60;;;;;;4938920;29;20975;-77
2023/04/27 03:00:33;;;;;;;12.77;9.33;;;16.20;46.50;;;;;;4940352;29;20515;-77
2023/04/27 03:03:01;;;;;;;12.73;8.90;;;16.20;46.70;;;;;;4941764;29;20440;-77
2023/04/27 03:05:30;;;;;;;13.30;9.80;;;16.20;46.70;;;;;;4941305;29;20450;-78
2023/04/27 03:07:59;;;;;;;13.83;9.00;;;16.10;46.50;;;;;;4946920;29;20447;-77
2023/04/27 03:10:27;;;;;;;11.40;8.63;;;16.10;46.60;;;;;;4941682;29;20542;-77
2023/04/27 03:12:55;;;;;;;13.73;8.40;;;16.10;46.70;;;;;;4936546;29;20455;-78
2023/04/27 03:15:23;;;;;;;12.80;8.47;;;16.10;46.60;;;;;;4943123;29;20452;-77
2023/04/27 03:17:51;;;;;;;12.90;7.77;;;16.10;46.70;;;;;;4936185;29;20458;-74
2023/04/27 03:20:19;;;;;;;10.27;7.33;;;16.10;46.60;;;;;;4943593;29;20452;-78
2023/04/27 03:22:47;;;;;;;11.13;8.30;;;16.00;46.70;;;;;;4943893;28;20478;-78
2023/04/27 03:25:17;;;;;;;11.37;8.03;;;16.00;46.60;;;;;;4938815;29;20447;-77
2023/04/27 03:27:45;;;;;;;10.73;7.60;;;16.00;46.70;;;;;;4939626;29;20444;-77
2023/04/27 03:30:14;;;;;;;8.57;6.70;;;16.00;46.70;;;;;;4935979;29;20460;-76
2023/04/27 03:32:42;;;;;;;9.10;6.30;;;16.00;46.60;;;;;;4942795;29;20448;-77
2023/04/27 03:35:14;;;;;;;8.83;7.13;;;16.00;46.70;;;;;;4936013;29;20453;-76
2023/04/27 03:37:44;;;;;;;10.27;6.43;;;16.00;46.70;;;;;;4935641;29;21056;-78
2023/04/27 03:40:14;;;;;;;8.40;6.50;;;16.00;46.80;;;;;;4935714;29;20467;-79
2023/04/27 03:42:43;;;;;;;10.60;6.40;;;16.00;46.70;;;;;;4935457;29;20475;-77
2023/04/27 03:45:12;;;;;;;6.93;5.70;;;16.00;46.80;;;;;;4943020;29;20456;-77
2023/04/27 03:47:40;;;;;;;9.23;6.90;;;15.90;46.60;;;;;;4935572;29;20511;-77
2023/04/27 03:50:08;;;;;;;6.77;6.07;;;15.90;46.70;;;;;;4937299;29;20451;-78
2023/04/27 03:52:36;;;;;;;7.87;6.33;;;15.90;46.80;;;;;;4941881;29;20447;-76
2023/04/27 03:55:06;;;;;;;7.77;6.00;;;15.90;46.70;;;;;;4937641;29;20452;-77
2023/04/27 03:57:34;;;;;;;8.20;6.17;;;15.90;46.70;;;;;;4940827;29;20459;-78
2023/04/27 04:00:10;;;;;;;6.70;5.70;;;15.90;46.60;;;;;;4935342;29;20458;-78
2023/04/27 04:02:38;;;;;;;6.57;5.57;;;15.90;46.70;;;;;;4949542;29;20478;-76
2023/04/27 04:05:07;;;;;;;6.30;5.30;;;15.80;46.70;;;;;;4952819;28;20531;-77
2023/04/27 04:07:35;;;;;;;7.50;5.97;;;15.80;46.70;;;;;;4938978;29;20456;-78
2023/04/27 04:10:04;;;;;;;6.53;5.20;;;15.90;46.80;;;;;;4935238;29;20452;-77
2023/04/27 04:12:33;;;;;;;5.97;4.87;;;15.80;46.60;;;;;;4940039;29;20448;-77
2023/04/27 04:15:01;;;;;;;7.13;5.20;;;15.80;46.70;;;;;;4945934;29;20459;-78
2023/04/27 04:17:32;;;;;;;6.27;4.63;;;15.80;46.80;;;;;;4954014;28;20457;-78
2023/04/27 04:20:01;;;;;;;5.77;5.17;;;15.80;46.70;;;;;;4944155;28;20444;-78
2023/04/27 04:22:29;;;;;;;5.73;4.83;;;15.80;46.90;;;;;;4934982;29;20475;-77
2023/04/27 04:24:57;;;;;;;4.87;4.47;;;15.80;46.70;;;;;;4935982;29;20452;-78
2023/04/27 04:27:24;;;;;;;7.83;4.83;;;15.80;46.80;;;;;;4941525;29;20537;-77
2023/04/27 04:29:54;;;;;;;4.50;4.10;;;15.80;46.70;;;;;;4937982;29;20454;-78
2023/04/27 04:32:23;;;;;;;5.43;4.67;;;15.80;46.90;;;;;;4936009;29;20474;-79
2023/04/27 04:34:53;;;;;;;5.30;4.53;;;15.80;46.80;;;;;;4942284;29;20447;-77
2023/04/27 04:37:22;;;;;;;5.20;4.70;;;15.80;46.70;;;;;;4947277;28;20435;-79
2023/04/27 04:39:49;;;;;;;4.40;4.00;;;15.80;46.80;;;;;;4953773;29;20453;-77
2023/04/27 04:42:17;;;;;;;4.47;4.07;;;15.80;46.90;;;;;;4941751;29;20575;-77
2023/04/27 04:44:46;;;;;;;4.77;4.27;;;15.70;46.80;;;;;;4938794;29;20452;-78
2023/04/27 04:47:14;;;;;;;9.73;4.30;;;15.80;46.80;;;;;;4943017;29;20440;-78
2023/04/27 04:49:42;;;;;;;4.50;4.10;;;15.80;46.80;;;;;;4937143;29;20475;-78
2023/04/27 04:52:12;;;;;;;4.80;4.27;;;15.80;46.90;;;;;;4936480;29;20509;-78
2023/04/27 04:54:40;;;;;;;4.50;4.10;;;15.80;46.80;;;;;;4943146;29;20447;-79
2023/04/27 04:57:08;;;;;;;4.40;3.90;;;15.80;46.70;;;;;;4936914;29;20452;-78
2023/04/27 04:59:36;;;;;;;5.63;3.80;;;15.80;46.70;;;;;;4941426;29;20451;-79
2023/04/27 05:02:04;;;;;;;4.20;3.80;;;15.80;46.60;;;;;;4937178;29;20480;-79
2023/04/27 05:04:32;;;;;;;5.60;4.30;;;15.80;46.70;;;;;;4939405;29;20459;-78
2023/04/27 05:07:01;;;;;;;5.57;4.10;;;15.80;46.70;;;;;;4936338;29;20551;-79
2023/04/27 05:09:30;;;;;;;4.47;4.07;;;15.80;46.70;;;;;;4936413;29;20446;-78
2023/04/27 05:11:59;;;;;;;5.50;4.03;;;15.80;46.60;;;;;;4943004;29;20533;-78
2023/04/27 05:14:27;;;;;;;4.20;3.80;;;15.80;46.60;;;;;;4941883;29;20440;-79
2023/04/27 05:16:55;;;;;;;4.90;3.53;;;15.80;46.70;;;;;;4941987;29;20455;-79
2023/04/27 05:19:24;;;;;;;4.70;3.90;;;15.80;46.70;;;;;;4935130;29;20445;-78
2023/04/27 05:21:51;;;;;;;3.87;3.57;;;15.80;46.70;;;;;;4942403;29;20489;-78
2023/04/27 05:24:20;;;;;;;3.60;3.40;;;15.80;47.30;;;;;;4941153;29;20439;-78
2023/04/27 05:26:49;;;;;;;3.83;3.53;;;15.80;46.40;;;;;;4933876;29;20503;-77
2023/04/27 05:29:17;;;;;;;3.80;3.50;;;15.80;46.60;;;;;;4941261;29;20448;-78
2023/04/27 05:31:45;;;;;;;4.20;3.63;;;15.80;46.60;;;;;;4934074;29;20475;-78
2023/04/27 05:34:13;;;;;;;4.40;3.87;;;15.80;46.50;;;;;;4934176;29;20459;-78
2023/04/27 05:36:41;;;;;;;3.77;3.47;;;15.80;46.60;;;;;;4936861;29;20471;-78
2023/04/27 05:39:09;;;;;;;3.77;3.47;;;15.90;46.70;;;;;;4934299;29;20447;-78
2023/04/27 05:41:37;;;;;;;3.73;3.43;;;15.80;46.60;;;;;;4938467;29;20474;-78
2023/04/27 05:44:06;;;;;;;4.10;3.70;;;15.90;46.60;;;;;;4936144;29;20444;-78
2023/04/27 05:46:34;;;;;;;4.43;4.03;;;15.90;46.80;;;;;;4938355;29;20453;-77
2023/04/27 05:49:05;;;;;;;4.60;2.90;;;15.80;46.50;;;;;;4935854;29;20510;-78
2023/04/27 05:51:33;;;;;;;3.37;3.17;;;15.90;46.70;;;;;;4933707;29;20911;-78
2023/04/27 05:54:01;;;;;;;4.73;3.23;;;15.90;46.70;;;;;;4940603;29;20447;-78
2023/04/27 05:56:29;;;;;;;4.50;3.33;;;15.90;46.70;;;;;;4933825;29;20451;-79
2023/04/27 05:58:58;;;;;;;3.87;3.57;;;15.90;46.60;;;;;;4933809;29;20463;-78
2023/04/27 06:01:30;;;;;;;3.90;3.60;;;16.00;46.70;;;;;;4933608;29;20568;-79
2023/04/27 06:04:00;;;;;;;3.83;3.53;;;16.00;46.60;;;;;;4933871;29;20479;-78
2023/04/27 06:06:31;;;;;;;3.13;2.93;;;16.00;46.70;;;;;;4933741;29;20451;-78
2023/04/27 06:08:59;;;;;;;3.20;2.97;;;16.00;46.60;;;;;;4941602;29;20446;-78
2023/04/27 06:11:27;;;;;;;3.40;3.17;;;16.00;46.60;;;;;;4937986;29;20462;-78
2023/04/27 06:13:55;;;;;;;3.50;3.17;;;16.10;46.40;;;;;;4942067;28;20523;-78
2023/04/27 06:16:23;;;;;;;3.70;3.40;;;16.10;46.40;;;;;;4934057;29;20547;-78
2023/04/27 06:18:53;;;;;;;3.13;2.93;;;16.10;46.50;;;;;;4933283;29;20440;-78
2023/04/27 06:21:21;;;;;;;3.13;2.93;;;16.20;46.60;;;;;;4933802;29;20466;-78
2023/04/27 06:23:49;;;;;;;3.60;3.30;;;16.20;46.70;;;;;;4933376;29;20556;-78
2023/04/27 06:26:17;;;;;;;3.07;2.87;;;16.30;46.60;;;;;;4941296;29;20443;-78
2023/04/27 06:28:45;;;;;;;3.20;3.00;;;16.30;46.70;;;;;;4933590;29;20467;-78
2023/04/27 06:31:13;;;;;;;5.70;3.20;;;16.40;46.50;;;;;;4940201;29;20466;-78
2023/04/27 06:33:41;;;;;;;3.73;3.13;;;16.40;46.50;;;;;;4939170;29;20443;-78
2023/04/27 06:36:11;;;;;;;3.00;2.80;;;16.50;46.60;;;;;;4953711;28;20451;-77
2023/04/27 06:38:39;;;;;;;3.30;3.00;;;16.60;46.60;;;;;;4956178;29;20462;-78
2023/04/27 06:41:07;;;;;;;3.03;2.83;;;16.60;46.50;;;;;;4955707;29;20479;-78
2023/04/27 06:43:35;;;;;;;3.60;3.30;;;16.70;46.40;;;;;;4950192;29;20996;-78
2023/04/27 06:46:04;;;;;;;3.17;2.87;;;16.80;46.40;;;;;;4936792;29;20439;-78
2023/04/27 06:48:32;;;;;;;3.27;2.97;;;16.80;46.40;;;;;;4940217;29;20490;-78
2023/04/27 06:51:00;;;;;;;4.60;3.00;;;16.90;46.30;;;;;;4939666;29;20468;-79
2023/04/27 06:53:30;;;;;;;3.27;2.97;;;16.90;46.30;;;;;;4947549;29;20439;-78
2023/04/27 06:55:58;;;;;;;3.50;3.20;;;17.00;46.50;;;;;;4955807;28;20443;-78
2023/04/27 06:58:26;;;;;;;3.63;3.33;;;17.00;46.30;;;;;;4954409;29;20447;-78
2023/04/27 07:00:55;;;;;;;3.33;2.83;;;17.10;46.40;;;;;;4944328;29;20448;-78
2023/04/27 07:03:22;;;;;;;3.20;3.00;;;17.20;46.40;;;;;;4936414;29;20486;-78
2023/04/27 07:05:51;;;;;;;3.07;2.87;;;17.30;46.50;;;;;;4942915;29;20459;-78
2023/04/27 07:08:19;;;;;;;3.17;2.97;;;17.30;46.40;;;;;;4954776;29;20503;-78
2023/04/27 07:10:49;;;;;;;3.03;2.83;;;17.40;46.40;;;;;;4947276;29;20463;-78
2023/04/27 07:13:17;;;;;;;3.50;3.13;;;17.50;46.40;;;;;;4939028;28;20455;-77
2023/04/27 07:15:45;;;;;;;3.03;2.83;;;17.60;46.40;;;;;;4955467;29;20439;-78
2023/04/27 07:18:13;;;;;;;2.80;2.60;;;17.60;46.60;;;;;;4954976;29;20550;-79
2023/04/27 07:20:41;;;;;;;3.80;2.80;;;17.70;46.70;;;;;;4949828;29;20475;-78
2023/04/27 07:23:10;;;;;;;3.17;2.87;;;17.70;46.70;;;;;;4937464;29;20482;-77
2023/04/27 07:25:39;;;;;;;2.90;2.70;;;17.80;46.70;;;;;;4941956;29;20440;-78
2023/04/27 07:28:16;;;;;;;2.83;2.60;;;17.90;47.00;;;;;;4944099;29;20446;-77
2023/04/27 07:30:44;;;;;;;3.40;2.83;;;18.10;46.80;;;;;;4936103;29;20468;-76
2023/04/27 07:33:12;;;;;;;2.87;2.67;;;18.20;46.90;;;;;;4944035;29;20447;-77
2023/04/27 07:35:40;;;;;;;3.03;2.83;;;18.30;47.00;;;;;;4936118;29;20452;-77
2023/04/27 07:38:09;;;;;;;5.40;3.17;;;18.50;47.00;;;;;;4936306;29;20455;-77
2023/04/27 07:40:37;;;;;;;4.37;3.47;;;18.60;46.90;;;;;;4949736;29;20478;-78
2023/04/27 07:43:05;;;;;;;2.77;2.57;;;18.70;46.80;;;;;;4943748;29;20476;-79
2023/04/27 07:45:37;;;;;;;3.10;2.70;;;18.90;46.90;;;;;;4935956;29;20455;-79
2023/04/27 07:48:06;;;;;;;2.70;2.50;;;19.10;46.80;;;;;;4937495;29;20475;-78
2023/04/27 07:50:34;;;;;;;2.80;2.60;;;19.20;46.70;;;;;;4936201;29;20467;-78
2023/04/27 07:53:02;;;;;;;2.57;2.37;;;19.30;46.60;;;;;;4939238;29;20448;-79
2023/04/27 07:55:31;;;;;;;2.87;2.67;;;19.50;46.50;;;;;;4935379;29;20441;-77
2023/04/27 07:57:59;;;;;;;2.97;2.83;;;19.70;46.50;;;;;;4942808;29;20455;-79
2023/04/27 08:00:27;;;;;;;2.97;2.77;;;19.90;46.40;;;;;;4953810;29;20468;-78
2023/04/27 08:02:57;;;;;;;2.50;2.40;;;20.00;46.30;;;;;;4954265;28;20450;-78
2023/04/27 08:05:25;;;;;;;2.37;2.27;;;20.20;46.30;;;;;;4943636;29;20466;-79
2023/04/27 08:07:53;;;;;;;2.63;2.47;;;20.30;46.20;;;;;;4935623;29;20448;-78
2023/04/27 08:10:22;;;;;;;3.03;2.73;;;20.50;46.20;;;;;;4943027;29;20447;-77
2023/04/27 08:12:50;;;;;;;2.67;2.47;;;20.60;45.90;;;;;;4935460;29;20507;-77
2023/04/27 08:15:18;;;;;;;3.30;2.40;;;20.80;45.90;;;;;;4936920;29;20452;-78
2023/04/27 08:17:47;;;;;;;3.10;2.80;;;20.90;45.70;;;;;;4945987;28;20458;-77
2023/04/27 08:20:16;;;;;;;2.53;2.33;;;21.10;45.70;;;;;;4945603;29;20438;-76
2023/04/27 08:22:45;;;;;;;2.40;2.30;;;21.30;45.60;;;;;;4944260;28;20455;-78
2023/04/27 08:25:13;;;;;;;3.53;2.50;;;21.50;45.50;;;;;;4938497;29;20489;-78
2023/04/27 08:27:41;;;;;;;2.87;2.60;;;21.60;45.30;;;;;;4935003;29;20456;-78
2023/04/27 08:30:10;;;;;;;4.40;2.50;;;21.80;45.20;;;;;;4942976;29;20429;-78
2023/04/27 08:32:39;;;;;;;3.30;2.17;;;22.00;45.00;;;;;;4940007;29;20457;-79
2023/04/27 08:35:08;;;;;;;2.60;2.40;;;22.20;45.00;;;;;;4937913;29;20448;-78
2023/04/27 08:37:37;;;;;;;2.80;2.60;;;22.50;44.80;;;;;;4935011;29;20462;-78
2023/04/27 08:40:08;;;;;;;2.50;2.30;;;22.70;44.70;;;;;;4935111;29;20427;-76
2023/04/27 08:42:36;;;;;;;2.50;2.40;;;22.90;44.40;;;;;;4941852;29;20438;-78
2023/04/27 08:45:08;;;;;;;2.30;2.20;;;23.10;44.20;;;;;;4934887;29;20476;-78
2023/04/27 08:47:36;;;;;;;2.57;2.37;;;23.30;44.00;;;;;;4942914;29;20419;-78
2023/04/27 08:50:11;;;;;;;3.17;2.37;;;23.40;43.80;;;;;;4934833;29;20430;-78
2023/04/27 08:52:40;;;;;;;2.13;2.03;;;23.50;43.60;;;;;;4939136;29;20451;-78
2023/04/27 08:55:09;;;;;;;3.07;2.60;;;23.40;43.20;;;;;;4944694;28;20413;-78
2023/04/27 08:57:37;;;;;;;2.57;2.37;;;23.40;43.20;;;;;;4948857;28;20448;-78
2023/04/27 09:00:11;;;;;;;2.50;2.30;;;23.30;43.20;;;;;;4934329;29;20448;-78
2023/04/27 09:02:45;;;;;;;2.30;2.10;;;23.20;43.10;;;;;;4934472;29;20423;-77
2023/04/27 09:05:17;;;;;;;2.37;2.17;;;23.20;43.20;;;;;;4934157;29;20479;-78
2023/04/27 09:08:00;;;;;;;2.17;2.07;;;23.10;43.10;;;;;;4947076;29;20506;-79
2023/04/27 09:10:28;;;;;;;2.47;2.27;;;23.10;43.00;;;;;;4952610;29;20434;-78
2023/04/27 09:12:57;;;;;;;2.50;2.30;;;23.10;42.90;;;;;;4946338;29;20444;-77
2023/04/27 09:15:25;;;;;;;2.93;2.50;;;23.10;42.90;;;;;;4934631;29;20440;-79
2023/04/27 09:17:55;;;;;;;4.40;2.30;;;23.10;42.80;;;;;;4940162;29;20454;-78
2023/04/27 09:20:27;;;;;;;2.60;2.50;;;23.00;42.90;;;;;;4936212;29;20518;-83
2023/04/27 09:22:57;;;;;;;2.40;2.20;;;22.90;42.80;;;;;;4940164;29;20473;-78
2023/04/27 09:25:26;;;;;;;2.50;2.37;;;22.80;42.70;;;;;;4934627;29;20539;-77
2023/04/27 09:27:54;;;;;;;9.03;2.30;;;22.80;42.70;;;;;;4940153;29;20473;-78
2023/04/27 09:30:22;;;;;;;3.53;2.53;;;22.80;42.70;;;;;;4953498;29;20462;-78
2023/04/27 09:32:52;;;;;;;3.70;2.20;;;22.70;42.60;;;;;;4947405;28;20427;-78
2023/04/27 09:35:24;;;;;;;2.70;2.50;;;22.70;42.50;;;;;;4936166;29;20443;-77
2023/04/27 09:37:52;;;;;;;2.73;2.63;;;22.70;42.50;;;;;;4939651;29;20518;-77
2023/04/27 09:40:25;;;;;;;2.50;2.30;;;22.70;42.40;;;;;;4935782;29;20430;-76
2023/04/27 09:42:54;;;;;;;2.30;2.20;;;22.80;42.30;;;;;;4939327;29;20443;-78
2023/04/27 09:45:23;;;;;;;2.90;2.70;;;22.70;42.20;;;;;;4935620;29;20487;-78
2023/04/27 09:47:50;;;;;;;2.33;2.17;;;22.80;42.50;;;;;;4939613;29;20421;-76
2023/04/27 09:50:19;;;;;;;2.50;2.40;;;23.00;42.90;;;;;;4934175;29;20419;-78
2023/04/27 09:52:46;;;;;;;3.20;2.10;;;23.30;43.10;;;;;;4936752;29;20492;-77
2023/04/27 09:55:16;;;;;;;3.17;2.30;;;23.60;43.00;;;;;;4934142;29;20534;-78
2023/04/27 09:57:52;;;;;;;3.17;2.63;;;24.00;42.90;;;;;;4934548;29;20458;-77
2023/04/27 10:00:31;;;;;;;2.60;2.50;;;24.40;42.70;;;;;;4934032;29;20462;-78
2023/04/27 10:03:07;;;;;;;2.43;2.17;;;24.90;42.40;;;;;;4935512;29;20434;-78
2023/04/27 10:06:10;;;;;;;2.47;2.27;;;25.40;42.70;;;;;;4953013;29;20441;-78
2023/04/27 10:08:38;;;;;;;2.53;2.33;;;25.80;41.70;;;;;;4952654;29;20418;-79
2023/04/27 10:11:14;;;;;;;4.43;2.20;;;25.90;40.90;;;;;;4946447;28;20448;-78
2023/04/27 10:13:52;;;;;;;3.97;3.00;;;26.00;41.00;;;;;;4938865;29;20426;-78
2023/04/27 10:16:21;;;;;;;2.50;2.40;;;26.20;41.10;;;;;;4945531;29;20442;-79
2023/04/27 10:18:54;;;;;;;2.40;2.30;;;26.40;40.80;;;;;;4938585;29;20462;-77
2023/04/27 10:21:22;;;;;;;2.43;2.23;;;26.70;40.80;;;;;;4938213;29;20438;-79
2023/04/27 10:23:51;;;;;;;2.80;2.60;;;27.00;40.80;;;;;;4942858;29;20453;-78
2023/04/27 10:26:23;;;;;;;2.70;2.60;;;27.30;40.20;;;;;;4939988;29;20482;-77
2023/04/27 10:29:07;;;;;;;2.27;2.17;;;27.80;39.90;;;;;;4947097;29;20455;-79
2023/04/27 10:31:35;;;;;;;3.00;2.80;;;28.10;39.30;;;;;;4938035;28;20468;-77
2023/04/27 10:34:08;;;;;;;2.43;2.30;;;28.40;38.90;;;;;;4937707;29;20451;-76
2023/04/27 10:36:36;;;;;;;2.83;2.63;;;28.50;38.50;;;;;;4945065;29;20459;-78
2023/04/27 10:39:14;;;;;;;2.53;2.40;;;28.60;38.00;;;;;;4937645;29;20463;-77
2023/04/27 10:41:51;;;;;;;2.70;2.50;;;28.50;37.80;;;;;;4943892;29;20454;-77
2023/04/27 10:44:24;;;;;;;3.00;2.60;;;28.60;38.00;;;;;;4937578;29;20448;-77
2023/04/27 10:46:52;;;;;;;2.80;2.40;;;28.80;37.60;;;;;;4939199;29;20467;-76
2023/04/27 10:49:20;;;;;;;2.60;2.50;;;28.70;37.20;;;;;;4937779;29;20451;-78
2023/04/27 10:51:50;;;;;;;3.40;3.10;;;28.70;37.20;;;;;;4937648;29;20475;-76
2023/04/27 10:54:18;;;;;;;3.30;3.10;;;28.90;37.70;;;;;;4939118;29;20452;-77
2023/04/27 10:56:46;;;;;;;3.87;3.40;;;29.20;37.80;;;;;;4937653;29;20460;-78
2023/04/27 10:59:14;;;;;;;3.80;3.50;;;29.50;37.30;;;;;;4944768;29;20452;-79
2023/04/27 11:01:48;;;;;;;4.20;3.90;;;29.90;37.00;;;;;;4937612;29;20475;-77
2023/04/27 11:04:17;;;;;;;4.17;3.87;;;30.00;36.10;;;;;;4943658;29;21000;-76
2023/04/27 11:06:45;;;;;;;3.40;3.20;;;30.10;36.00;;;;;;4943655;29;20480;-78
2023/04/27 11:09:14;;;;;;;3.70;3.40;;;29.90;35.60;;;;;;4944282;29;20818;-77
2023/04/27 11:11:45;;;;;;;3.10;2.90;;;30.10;36.10;;;;;;4942944;29;20460;-78
2023/04/27 11:14:20;;;;;;;3.80;3.60;;;30.60;36.00;;;;;;4936494;29;20527;-78
2023/04/27 11:16:50;;;;;;;3.70;3.47;;;31.80;35.40;;;;;;4940191;29;20443;-78
2023/04/27 11:19:17;;;;;;;3.43;3.13;;;33.00;33.70;;;;;;4939005;29;20532;-77
2023/04/27 11:21:45;;;;;;;3.17;3.07;;;34.30;32.70;;;;;;4943562;29;20467;-76
2023/04/27 11:24:13;;;;;;;3.73;3.43;;;35.30;30.60;;;;;;4944151;29;20463;-79
2023/04/27 11:26:42;;;;;;;4.80;3.20;;;35.30;29.50;;;;;;4936125;29;20448;-78
2023/04/27 11:29:12;;;;;;;3.47;3.30;;;35.50;30.00;;;;;;4942900;29;20447;-79
2023/04/27 11:31:46;;;;;;;3.13;3.03;;;35.90;29.00;;;;;;4936194;29;20472;-77
2023/04/27 11:34:17;;;;;;;3.43;3.23;;;34.90;28.90;;;;;;4935867;29;20464;-77
2023/04/27 11:36:56;;;;;;;3.40;3.20;;;34.00;29.30;;;;;;4947320;29;20509;-78
2023/04/27 11:39:41;;;;;;;3.87;3.67;;;33.70;30.80;;;;;;4954639;29;20517;-78
2023/04/27 11:42:17;;;;;;;4.27;3.80;;;33.00;30.00;;;;;;4954207;28;20472;-78
2023/04/27 11:44:51;;;;;;;4.00;3.70;;;32.20;30.60;;;;;;4935975;29;20450;-77
2023/04/27 11:47:20;;;;;;;3.93;3.50;;;31.60;31.30;;;;;;4940162;29;20438;-77
2023/04/27 11:49:50;;;;;;;4.37;4.07;;;31.10;31.60;;;;;;4947451;29;20435;-78
2023/04/27 11:52:18;;;;;;;4.20;3.80;;;30.70;31.90;;;;;;4953677;29;21042;-77
2023/04/27 11:54:49;;;;;;;4.40;4.10;;;30.30;32.40;;;;;;4942767;29;20448;-79
2023/04/27 11:57:17;;;;;;;4.27;3.93;;;30.00;32.60;;;;;;4935513;29;20479;-78
2023/04/27 11:59:46;;;;;;;4.53;4.20;;;29.70;32.80;;;;;;4941499;29;20535;-77
2023/04/27 12:02:15;;;;;;;5.10;4.63;;;29.50;33.20;;;;;;4950623;29;20470;-77
2023/04/27 12:04:43;;;;;;;4.20;3.90;;;29.20;33.40;;;;;;4942485;29;20457;-76
2023/04/27 12:07:14;;;;;;;5.00;4.60;;;29.00;33.70;;;;;;4935346;29;20444;-78
2023/04/27 12:09:42;;;;;;;5.03;4.57;;;29.80;35.60;;;;;;4936602;29;20454;-78
2023/04/27 12:12:11;;;;;;;4.20;3.90;;;30.00;32.90;;;;;;4942978;29;20479;-77
2023/04/27 12:14:40;;;;;;;4.30;4.00;;;29.90;32.90;;;;;;4937388;29;20448;-77
2023/04/27 12:17:08;;;;;;;4.77;4.20;;;29.90;33.20;;;;;;4940750;29;20483;-78
2023/04/27 12:19:36;;;;;;;3.97;3.70;;;29.80;32.70;;;;;;4938709;29;20507;-78
2023/04/27 12:22:05;;;;;;;4.47;4.17;;;29.80;33.10;;;;;;4936885;29;20472;-78
2023/04/27 12:24:35;;;;;;;4.23;3.83;;;29.50;33.00;;;;;;4935472;29;20459;-77
2023/04/27 12:27:03;;;;;;;4.90;4.50;;;29.20;32.90;;;;;;4940820;29;20454;-78
2023/04/27 12:29:32;;;;;;;5.20;4.70;;;29.00;33.30;;;;;;4936313;28;20411;-78
2023/04/27 12:32:00;;;;;;;5.33;4.30;;;28.80;33.40;;;;;;4934969;29;20468;-78
2023/04/27 12:34:28;;;;;;;6.60;4.50;;;28.60;33.60;;;;;;4941818;29;20454;-78
2023/04/27 12:36:56;;;;;;;5.10;4.70;;;28.60;33.80;;;;;;4940898;29;20476;-78
2023/04/27 12:39:24;;;;;;;4.57;4.27;;;29.70;34.20;;;;;;4935262;29;20447;-77
2023/04/27 12:41:54;;;;;;;4.47;3.80;;;31.00;32.50;;;;;;4941076;29;20476;-75
2023/04/27 12:44:22;;;;;;;4.87;4.43;;;31.00;31.50;;;;;;4934531;29;20446;-76
2023/04/27 12:46:51;;;;;;;4.43;4.10;;;31.20;31.30;;;;;;4937375;29;20454;-78
2023/04/27 12:49:19;;;;;;;5.37;4.97;;;31.30;30.90;;;;;;4941731;29;20452;-78
2023/04/27 12:51:50;;;;;;;5.30;4.80;;;31.60;30.50;;;;;;4934686;29;20467;-79
2023/04/27 12:54:18;;;;;;;5.00;4.60;;;31.50;30.70;;;;;;4937108;29;20448;-78